createdAt,value
2019-05-19T00:02:11.941Z,11.99
2019-05-19T00:05:18.706Z,11.64
2019-05-19T00:08:25.160Z,11.66
2019-05-19T00:11:31.795Z,11.80
2019-05-19T00:14:38.292Z,12.05
2019-05-19T00:17:46.943Z,12.24
2019-05-19T00:20:53.480Z,11.85
2019-05-19T00:24:00.062Z,12.10
2019-05-19T00:27:07.622Z,12.12
2019-05-19T00:30:14.739Z,12.10
2019-05-19T00:33:22.733Z,12.37
2019-05-19T00:36:29.290Z,12.26
2019-05-19T00:39:35.911Z,11.71
2019-05-19T00:42:42.578Z,11.37
2019-05-19T00:45:49.160Z,11.47
2019-05-19T00:48:55.828Z,11.39
2019-05-19T00:52:02.518Z,10.75
2019-05-19T00:55:09.664Z,10.70
2019-05-19T00:58:17.120Z,10.72
2019-05-19T01:01:23.639Z,10.94
2019-05-19T01:04:32.658Z,10.89
2019-05-19T01:07:39.369Z,10.57
2019-05-19T01:10:46.463Z,10.92
2019-05-19T01:13:54.134Z,10.71
2019-05-19T01:17:00.623Z,10.85
2019-05-19T01:20:07.496Z,10.41
2019-05-19T01:23:14.003Z,10.66
2019-05-19T01:26:20.414Z,10.24
2019-05-19T01:29:27.120Z,10.42
2019-05-19T01:32:33.582Z,10.34
2019-05-19T01:35:40.333Z,10.50
2019-05-19T01:38:50.859Z,10.55
2019-05-19T01:41:57.420Z,10.64
2019-05-19T01:45:04.076Z,10.46
2019-05-19T01:48:10.570Z,10.88
2019-05-19T01:51:17.013Z,10.33
2019-05-19T01:54:23.747Z,9.89
2019-05-19T01:57:30.172Z,10.02
2019-05-19T02:00:36.631Z,9.99
2019-05-19T02:03:47.474Z,10.31
2019-05-19T02:06:53.953Z,10.69
2019-05-19T02:10:03.500Z,10.39
2019-05-19T02:13:10.074Z,10.18
2019-05-19T02:16:16.632Z,10.23
2019-05-19T02:19:23.232Z,10.14
2019-05-19T02:22:29.653Z,10.52
2019-05-19T02:25:36.340Z,10.17
2019-05-19T02:28:45.972Z,9.79
2019-05-19T02:31:52.634Z,9.63
2019-05-19T02:34:59.093Z,9.67
2019-05-19T02:38:05.912Z,9.63
2019-05-19T02:41:15.596Z,9.72
2019-05-19T02:44:23.946Z,9.69
2019-05-19T02:47:33.084Z,9.75
2019-05-19T02:50:51.807Z,9.78
2019-05-19T02:53:50.113Z,9.90
2019-05-19T02:56:57.509Z,9.87
2019-05-19T03:00:05.693Z,9.93
2019-05-19T03:03:12.280Z,10.04
2019-05-19T03:06:19.788Z,9.81
2019-05-19T03:09:26.469Z,9.96
2019-05-19T03:12:32.867Z,10.33
2019-05-19T03:15:42.648Z,10.30
2019-05-19T03:18:49.123Z,10.49
2019-05-19T03:21:55.660Z,10.21
2019-05-19T03:25:02.196Z,9.93
2019-05-19T03:28:08.797Z,9.81
2019-05-19T03:31:34.380Z,9.95
2019-05-19T03:34:40.808Z,9.91
2019-05-19T03:37:47.247Z,10.12
2019-05-19T03:40:53.967Z,10.31
2019-05-19T03:44:00.513Z,9.51
2019-05-19T03:47:07.004Z,9.56
2019-05-19T03:50:13.439Z,9.80
2019-05-19T03:53:19.954Z,9.56
2019-05-19T03:56:26.490Z,9.95
2019-05-19T03:59:33.036Z,10.01
2019-05-19T04:02:39.573Z,9.94
2019-05-19T04:05:46.539Z,9.79
2019-05-19T04:08:53.055Z,9.65
2019-05-19T04:11:59.601Z,10.25
2019-05-19T04:15:06.605Z,10.18
2019-05-19T04:18:13.087Z,10.16
2019-05-19T04:21:19.704Z,10.04
2019-05-19T04:24:26.116Z,10.16
2019-05-19T04:27:32.568Z,10.20
2019-05-19T04:30:39.052Z,10.31
2019-05-19T04:33:48.577Z,10.40
2019-05-19T04:36:55.190Z,10.69
2019-05-19T04:40:01.680Z,11.13
2019-05-19T04:43:11.207Z,11.43
2019-05-19T04:46:17.630Z,11.69
2019-05-19T04:49:24.103Z,11.85
2019-05-19T04:52:30.627Z,12.03
2019-05-19T04:55:37.116Z,12.20
2019-05-19T04:58:44.779Z,12.35
2019-05-19T05:01:51.301Z,12.52
2019-05-19T05:04:57.741Z,12.69
2019-05-19T05:08:04.297Z,12.65
2019-05-19T05:11:10.797Z,12.74
2019-05-19T05:14:17.189Z,12.75
2019-05-19T05:17:23.642Z,12.81
2019-05-19T05:20:30.501Z,12.95
2019-05-19T05:23:37.081Z,13.06
2019-05-19T05:26:44.800Z,13.13
2019-05-19T05:29:51.271Z,13.17
2019-05-19T05:32:57.833Z,13.32
2019-05-19T05:36:04.398Z,13.32
2019-05-19T05:39:10.926Z,13.50
2019-05-19T05:42:17.484Z,13.72
2019-05-19T05:45:24.460Z,13.83
2019-05-19T05:48:30.996Z,14.01
2019-05-19T05:51:37.503Z,14.32
2019-05-19T05:54:46.854Z,14.31
2019-05-19T05:57:55.175Z,14.50
2019-05-19T06:01:01.623Z,14.60
2019-05-19T06:04:08.205Z,14.55
2019-05-19T06:07:14.867Z,14.67
2019-05-19T06:10:21.903Z,14.91
2019-05-19T06:13:28.288Z,14.87
2019-05-19T06:16:34.890Z,14.78
2019-05-19T06:19:41.557Z,14.78
2019-05-19T06:22:56.425Z,15.03
2019-05-19T06:25:56.505Z,14.92
2019-05-19T06:29:03.188Z,14.96
2019-05-19T06:32:17.375Z,15.13
2019-05-19T06:35:23.893Z,15.24
2019-05-19T06:38:30.389Z,15.17
2019-05-19T06:41:36.879Z,15.49
2019-05-19T06:44:43.588Z,15.39
2019-05-19T06:47:51.169Z,15.61
2019-05-19T06:50:57.604Z,15.61
2019-05-19T06:54:04.383Z,15.49
2019-05-19T06:57:11.095Z,15.70
2019-05-19T07:00:19.354Z,15.90
2019-05-19T07:03:25.850Z,16.10
2019-05-19T07:06:34.180Z,16.46
2019-05-19T07:09:40.689Z,16.99
2019-05-19T07:12:47.140Z,16.87
2019-05-19T07:15:55.273Z,16.65
2019-05-19T07:19:01.680Z,16.88
2019-05-19T07:22:08.138Z,17.12
2019-05-19T07:25:14.735Z,17.39
2019-05-19T07:28:21.347Z,17.53
2019-05-19T07:31:27.808Z,17.52
2019-05-19T07:34:34.341Z,17.78
2019-05-19T07:37:40.855Z,18.00
2019-05-19T07:40:47.379Z,17.56
2019-05-19T07:43:55.491Z,17.94
2019-05-19T07:47:01.971Z,18.14
2019-05-19T07:50:08.676Z,18.42
2019-05-19T07:53:15.272Z,18.32
2019-05-19T07:56:21.745Z,18.87
2019-05-19T07:59:28.274Z,18.79
2019-05-19T08:02:35.154Z,18.74
2019-05-19T08:05:44.727Z,18.90
2019-05-19T08:08:51.345Z,19.04
2019-05-19T08:11:57.713Z,19.31
2019-05-19T08:15:04.559Z,18.76
2019-05-19T08:18:12.685Z,19.48
2019-05-19T08:21:19.147Z,19.58
2019-05-19T08:24:25.724Z,19.31
2019-05-19T08:27:32.583Z,19.56
2019-05-19T08:30:39.168Z,19.43
2019-05-19T08:33:48.664Z,19.82
2019-05-19T08:36:55.156Z,19.93
2019-05-19T08:40:02.802Z,19.79
2019-05-19T08:43:09.340Z,19.71
2019-05-19T08:46:16.198Z,20.06
2019-05-19T08:49:25.282Z,20.23
2019-05-19T08:52:34.680Z,20.22
2019-05-19T08:55:41.185Z,20.21
2019-05-19T08:58:49.214Z,20.55
2019-05-19T09:01:56.776Z,20.55
2019-05-19T09:05:03.219Z,20.24
2019-05-19T09:08:09.683Z,20.90
2019-05-19T09:11:16.299Z,21.02
2019-05-19T09:14:22.779Z,20.68
2019-05-19T09:17:30.901Z,20.97
2019-05-19T09:20:37.363Z,20.56
2019-05-19T09:23:44.496Z,20.96
2019-05-19T09:26:50.976Z,21.39
2019-05-19T09:30:01.604Z,20.99
2019-05-19T09:33:11.976Z,21.57
2019-05-19T09:36:18.465Z,21.25
2019-05-19T09:39:24.938Z,21.45
2019-05-19T09:42:31.489Z,21.30
2019-05-19T09:45:37.954Z,21.66
2019-05-19T09:48:45.789Z,22.00
2019-05-19T09:51:52.269Z,21.20
2019-05-19T09:54:58.836Z,21.42
2019-05-19T09:58:05.420Z,21.44
2019-05-19T10:01:11.955Z,21.48
2019-05-19T10:04:20.343Z,21.15
2019-05-19T10:07:26.811Z,21.49
2019-05-19T10:11:12.554Z,21.95
2019-05-19T10:14:19.081Z,21.51
2019-05-19T10:17:25.652Z,21.67
2019-05-19T10:20:32.181Z,22.20
2019-05-19T10:23:38.885Z,21.91
2019-05-19T10:26:46.109Z,21.83
2019-05-19T10:29:52.532Z,21.98
2019-05-19T10:32:59.016Z,22.13
2019-05-19T10:36:05.783Z,22.02
2019-05-19T10:39:12.357Z,22.29
2019-05-19T10:42:18.898Z,22.14
2019-05-19T10:45:25.384Z,22.39
2019-05-19T10:48:31.994Z,22.15
2019-05-19T10:51:40.173Z,22.49
2019-05-19T10:54:46.681Z,22.47
2019-05-19T10:57:53.442Z,22.84
2019-05-19T11:00:59.926Z,22.13
2019-05-19T11:04:06.507Z,22.25
2019-05-19T11:07:13.225Z,22.09
2019-05-19T11:10:20.915Z,22.43
2019-05-19T11:13:27.413Z,22.42
2019-05-19T11:16:33.951Z,22.99
2019-05-19T11:19:40.411Z,22.89
2019-05-19T11:22:47.069Z,22.77
2019-05-19T11:25:53.410Z,23.04
2019-05-19T11:28:59.851Z,23.03
2019-05-19T11:32:06.408Z,22.32
2019-05-19T11:35:12.889Z,22.65
2019-05-19T11:38:19.170Z,22.82
2019-05-19T11:41:25.351Z,22.53
2019-05-19T11:44:31.584Z,23.12
2019-05-19T11:47:37.974Z,22.85
2019-05-19T11:50:45.065Z,23.08
2019-05-19T11:53:51.627Z,23.02
2019-05-19T11:56:58.199Z,22.81
2019-05-19T12:00:07.361Z,23.18
2019-05-19T12:03:13.573Z,23.19
2019-05-19T12:06:20.277Z,22.98
2019-05-19T12:09:26.783Z,22.88
2019-05-19T12:12:33.273Z,22.55
2019-05-19T12:15:39.391Z,22.62
2019-05-19T12:18:47.049Z,22.82
2019-05-19T12:21:53.536Z,22.62
2019-05-19T12:25:01.056Z,22.31
2019-05-19T12:28:07.747Z,22.06
2019-05-19T12:31:16.835Z,22.69
2019-05-19T12:34:22.116Z,22.62
2019-05-19T12:37:28.643Z,22.52
2019-05-19T12:40:34.804Z,22.87
2019-05-19T12:43:40.999Z,23.04
2019-05-19T12:46:48.841Z,23.08
2019-05-19T12:49:55.127Z,23.16
2019-05-19T12:53:01.366Z,22.93
2019-05-19T12:56:07.561Z,22.35
2019-05-19T12:59:14.775Z,22.18
2019-05-19T13:02:21.199Z,22.42
2019-05-19T13:05:28.898Z,22.55
2019-05-19T13:08:35.409Z,22.69
2019-05-19T13:11:43.887Z,22.32
2019-05-19T13:14:50.080Z,22.74
2019-05-19T13:17:56.481Z,22.50
2019-05-19T13:21:03.013Z,22.69
2019-05-19T13:24:11.102Z,22.27
2019-05-19T13:27:17.578Z,22.42
2019-05-19T13:30:24.236Z,23.06
2019-05-19T13:33:30.697Z,23.04
2019-05-19T13:36:40.203Z,22.90
2019-05-19T13:39:47.365Z,23.64
2019-05-19T13:42:53.513Z,23.42
2019-05-19T13:46:00.294Z,23.26
2019-05-19T13:49:06.853Z,23.32
2019-05-19T13:52:13.206Z,23.21
2019-05-19T13:55:19.844Z,23.18
2019-05-19T13:58:26.039Z,23.15
2019-05-19T14:01:32.250Z,23.58
2019-05-19T14:04:38.747Z,23.16
2019-05-19T14:07:45.606Z,23.21
2019-05-19T14:10:55.070Z,23.63
2019-05-19T14:14:01.309Z,23.61
2019-05-19T14:17:07.654Z,23.75
2019-05-19T14:20:14.238Z,23.43
2019-05-19T14:23:20.513Z,23.35
2019-05-19T14:26:26.787Z,22.81
2019-05-19T14:29:35.768Z,23.11
2019-05-19T14:32:44.052Z,23.25
2019-05-19T14:35:50.228Z,23.08
2019-05-19T14:39:05.059Z,23.26
2019-05-19T14:42:13.647Z,22.84
2019-05-19T14:45:20.937Z,23.01
2019-05-19T14:48:27.041Z,23.48
2019-05-19T14:51:33.455Z,23.34
2019-05-19T14:54:39.728Z,23.35
2019-05-19T14:57:47.000Z,22.89
2019-05-19T15:00:53.189Z,23.23
2019-05-19T15:03:59.495Z,23.13
2019-05-19T15:07:06.845Z,23.26
2019-05-19T15:10:13.627Z,23.54
2019-05-19T15:13:20.120Z,23.00
2019-05-19T15:16:26.358Z,23.23
2019-05-19T15:19:32.451Z,22.93
2019-05-19T15:22:38.716Z,22.85
2019-05-19T15:25:45.542Z,22.73
2019-05-19T15:28:51.710Z,22.13
2019-05-19T15:32:00.028Z,22.91
2019-05-19T15:35:07.010Z,22.70
2019-05-19T15:39:26.353Z,23.14
2019-05-19T15:42:32.513Z,22.66
2019-05-19T15:45:42.920Z,22.83
2019-05-19T15:48:49.170Z,22.82
2019-05-19T15:52:02.980Z,22.93
2019-05-19T15:55:03.750Z,22.60
2019-05-19T15:58:16.487Z,22.92
2019-05-19T16:01:18.045Z,23.07
2019-05-19T16:04:25.423Z,23.12
2019-05-19T16:07:31.861Z,22.97
2019-05-19T16:10:38.143Z,22.78
2019-05-19T16:13:44.879Z,23.29
2019-05-19T16:16:51.582Z,23.18
2019-05-19T16:19:57.692Z,22.49
2019-05-19T16:23:04.351Z,22.52
2019-05-19T16:26:10.684Z,22.40
2019-05-19T16:29:16.963Z,22.16
2019-05-19T16:32:23.413Z,21.83
2019-05-19T16:35:29.847Z,22.11
2019-05-19T16:38:36.353Z,21.03
2019-05-19T16:41:46.051Z,21.45
2019-05-19T16:44:52.303Z,21.59
2019-05-19T16:47:58.558Z,22.44
2019-05-19T16:51:04.908Z,22.82
2019-05-19T16:54:15.760Z,22.93
2019-05-19T16:57:22.045Z,21.58
2019-05-19T17:00:29.858Z,21.42
2019-05-19T17:03:36.098Z,21.71
2019-05-19T17:06:43.144Z,21.04
2019-05-19T17:09:50.645Z,21.45
2019-05-19T17:12:57.495Z,21.40
2019-05-19T17:16:04.104Z,21.78
2019-05-19T17:19:10.587Z,21.22
2019-05-19T17:22:17.076Z,21.37
2019-05-19T17:25:23.768Z,21.01
2019-05-19T17:28:30.424Z,20.92
2019-05-19T17:31:36.999Z,20.75
2019-05-19T17:34:45.844Z,20.04
2019-05-19T17:37:53.695Z,19.96
2019-05-19T17:41:00.194Z,19.26
2019-05-19T17:44:06.817Z,19.71
2019-05-19T17:47:13.334Z,20.50
2019-05-19T17:50:34.796Z,20.84
2019-05-19T17:53:44.790Z,20.33
2019-05-19T17:56:53.416Z,20.22
2019-05-19T18:00:02.259Z,20.33
2019-05-19T18:03:10.674Z,20.31
2019-05-19T18:06:17.349Z,19.79
2019-05-19T18:09:24.049Z,20.23
2019-05-19T18:12:31.709Z,19.99
2019-05-19T18:15:39.092Z,19.72
2019-05-19T18:18:47.848Z,18.85
2019-05-19T18:21:57.861Z,18.85
2019-05-19T18:25:04.608Z,19.10
2019-05-19T18:28:11.065Z,19.17
2019-05-19T18:31:17.538Z,19.23
2019-05-19T18:34:23.959Z,18.92
2019-05-19T18:37:32.396Z,18.97
2019-05-19T18:40:39.028Z,18.87
2019-05-19T18:43:46.888Z,18.64
2019-05-19T18:46:53.409Z,18.57
2019-05-19T18:51:09.482Z,18.09
2019-05-19T18:54:15.973Z,18.13
2019-05-19T18:57:22.430Z,18.71
2019-05-19T19:00:40.255Z,18.53
2019-05-19T19:03:47.230Z,18.28
2019-05-19T19:06:54.096Z,17.95
2019-05-19T19:10:00.497Z,17.72
2019-05-19T19:13:08.135Z,17.67
2019-05-19T19:16:14.735Z,17.72
2019-05-19T19:19:21.343Z,17.73
2019-05-19T19:22:28.045Z,17.59
2019-05-19T19:25:37.567Z,17.62
2019-05-19T19:28:46.332Z,17.46
2019-05-19T19:31:53.103Z,17.34
2019-05-19T19:34:59.490Z,17.33
2019-05-19T19:38:06.846Z,17.16
2019-05-19T19:41:13.797Z,17.31
2019-05-19T19:44:20.953Z,17.05
2019-05-19T19:47:27.950Z,17.01
2019-05-19T19:50:37.114Z,16.89
2019-05-19T19:53:45.266Z,16.46
2019-05-19T19:56:52.142Z,16.52
2019-05-19T19:59:59.376Z,16.42
2019-05-19T20:03:06.805Z,16.21
2019-05-19T20:06:16.358Z,15.87
2019-05-19T20:09:23.212Z,14.41
2019-05-19T20:12:31.975Z,14.63
2019-05-19T20:15:42.027Z,15.35
2019-05-19T20:18:48.689Z,15.25
2019-05-19T20:21:55.362Z,14.60
2019-05-19T20:25:01.764Z,13.96
2019-05-19T20:28:08.407Z,14.36
2019-05-19T20:31:14.975Z,14.87
2019-05-19T20:34:21.478Z,15.03
2019-05-19T20:37:28.104Z,14.08
2019-05-19T20:40:34.616Z,13.81
2019-05-19T20:43:41.149Z,14.28
2019-05-19T20:46:47.721Z,14.80
2019-05-19T20:49:56.301Z,14.13
2019-05-19T20:53:02.893Z,14.53
2019-05-19T20:56:09.367Z,14.74
2019-05-19T20:59:19.019Z,14.82
2019-05-19T21:02:25.644Z,14.72
2019-05-19T21:05:32.271Z,14.82
2019-05-19T21:08:39.066Z,14.55
2019-05-19T21:11:47.568Z,14.15
2019-05-19T21:14:54.140Z,14.07
2019-05-19T21:18:01.099Z,14.15
2019-05-19T21:21:07.669Z,13.84
2019-05-19T21:24:14.197Z,13.76
2019-05-19T21:27:37.482Z,13.12
2019-05-19T21:30:47.656Z,13.68
2019-05-19T21:33:54.150Z,13.72
2019-05-19T21:37:00.749Z,14.13
2019-05-19T21:40:08.539Z,14.08
2019-05-19T21:43:15.083Z,13.24
2019-05-19T21:46:21.641Z,13.13
2019-05-19T21:49:28.119Z,13.11
2019-05-19T21:52:34.671Z,12.69
2019-05-19T21:55:41.100Z,13.07
2019-05-19T21:58:51.324Z,13.64
2019-05-19T22:01:57.789Z,12.77
2019-05-19T22:05:04.603Z,13.72
2019-05-19T22:08:15.164Z,13.63
2019-05-19T22:11:21.594Z,12.91
2019-05-19T22:14:28.085Z,13.07
2019-05-19T22:17:34.729Z,13.09
2019-05-19T22:20:43.414Z,13.02
2019-05-19T22:23:50.971Z,12.76
2019-05-19T22:26:57.483Z,12.94
2019-05-19T22:30:05.909Z,12.58
2019-05-19T22:33:12.440Z,12.36
2019-05-19T22:36:20.183Z,12.76
2019-05-19T22:39:26.589Z,12.85
2019-05-19T22:42:33.185Z,12.67
2019-05-19T22:45:39.928Z,12.78
2019-05-19T22:48:46.529Z,12.81
2019-05-19T22:51:53.144Z,13.04
2019-05-19T22:55:02.093Z,12.91
2019-05-19T22:58:08.685Z,13.73
2019-05-19T23:01:16.917Z,14.27
2019-05-19T23:04:23.925Z,13.67
2019-05-19T23:07:30.502Z,13.19
2019-05-19T23:10:39.547Z,12.90
2019-05-19T23:13:47.125Z,13.31
2019-05-19T23:16:55.732Z,13.23
2019-05-19T23:20:02.222Z,13.59
2019-05-19T23:23:10.606Z,13.55
2019-05-19T23:26:17.132Z,13.48
2019-05-19T23:29:23.670Z,13.64
2019-05-19T23:32:31.701Z,13.74
2019-05-19T23:35:38.154Z,13.60
2019-05-19T23:38:46.810Z,13.22
2019-05-19T23:41:53.572Z,12.98
2019-05-19T23:45:00.107Z,13.16
2019-05-19T23:48:08.732Z,13.39
2019-05-19T23:51:15.223Z,12.69
2019-05-19T23:54:21.949Z,13.53
2019-05-19T23:57:28.609Z,13.37
